sensor_id;sensor_type;location;lat;lon;timestamp;P1;durP1;ratioP1;P2;durP2;ratioP2
13712;SDS011;6928;50.546;7.120;2023-06-14T00:01:39;1.92;;;1.20;;
13712;SDS011;6928;50.546;7.120;2023-06-14T00:04:07;1.20;;;1.08;;
13712;SDS011;6928;50.546;7.120;2023-06-14T00:06:34;0.98;;;0.98;;
13712;SDS011;6928;50.546;7.120;2023-06-14T00:09:00;2.50;;;1.05;;
13712;SDS011;6928;50.546;7.120;2023-06-14T00:11:27;1.00;;;1.00;;
13712;SDS011;6928;50.546;7.120;2023-06-14T00:13:55;1.30;;;1.20;;
13712;SDS011;6928;50.546;7.120;2023-06-14T00:16:22;1.75;;;1.00;;
13712;SDS011;6928;50.546;7.120;2023-06-14T00:18:49;1.05;;;0.93;;
13712;SDS011;6928;50.546;7.120;2023-06-14T00:21:18;0.98;;;0.90;;
13712;SDS011;6928;50.546;7.120;2023-06-14T00:23:45;0.85;;;0.85;;
13712;SDS011;6928;50.546;7.120;2023-06-14T00:26:12;1.15;;;1.05;;
13712;SDS011;6928;50.546;7.120;2023-06-14T00:28:38;0.93;;;0.93;;
13712;SDS011;6928;50.546;7.120;2023-06-14T00:31:06;0.95;;;0.95;;
13712;SDS011;6928;50.546;7.120;2023-06-14T00:33:32;0.93;;;0.93;;
13712;SDS011;6928;50.546;7.120;2023-06-14T00:35:59;1.20;;;1.17;;
13712;SDS011;6928;50.546;7.120;2023-06-14T00:38:27;1.38;;;1.27;;
13712;SDS011;6928;50.546;7.120;2023-06-14T00:40:53;1.23;;;0.90;;
13712;SDS011;6928;50.546;7.120;2023-06-14T00:43:20;0.85;;;0.85;;
13712;SDS011;6928;50.546;7.120;2023-06-14T00:45:46;0.80;;;0.80;;
13712;SDS011;6928;50.546;7.120;2023-06-14T00:48:14;0.80;;;0.80;;
13712;SDS011;6928;50.546;7.120;2023-06-14T00:50:42;1.00;;;1.00;;
13712;SDS011;6928;50.546;7.120;2023-06-14T00:53:10;3.08;;;1.25;;
13712;SDS011;6928;50.546;7.120;2023-06-14T00:55:38;2.35;;;1.05;;
13712;SDS011;6928;50.546;7.120;2023-06-14T00:58:05;1.00;;;0.73;;
13712;SDS011;6928;50.546;7.120;2023-06-14T01:00:32;0.90;;;0.90;;
13712;SDS011;6928;50.546;7.120;2023-06-14T01:02:59;1.20;;;1.13;;
13712;SDS011;6928;50.546;7.120;2023-06-14T01:05:26;1.55;;;1.30;;
13712;SDS011;6928;50.546;7.120;2023-06-14T01:07:57;1.13;;;1.02;;
13712;SDS011;6928;50.546;7.120;2023-06-14T01:10:39;0.88;;;0.88;;
13712;SDS011;6928;50.546;7.120;2023-06-14T01:13:15;1.25;;;0.82;;
13712;SDS011;6928;50.546;7.120;2023-06-14T01:15:46;0.77;;;0.77;;
13712;SDS011;6928;50.546;7.120;2023-06-14T01:18:13;0.95;;;0.70;;
13712;SDS011;6928;50.546;7.120;2023-06-14T01:20:43;0.80;;;0.80;;
13712;SDS011;6928;50.546;7.120;2023-06-14T01:23:13;1.05;;;1.00;;
13712;SDS011;6928;50.546;7.120;2023-06-14T01:25:40;2.55;;;1.20;;
13712;SDS011;6928;50.546;7.120;2023-06-14T01:28:09;1.10;;;1.10;;
13712;SDS011;6928;50.546;7.120;2023-06-14T01:30:38;0.73;;;0.73;;
13712;SDS011;6928;50.546;7.120;2023-06-14T01:33:09;1.63;;;1.23;;
13712;SDS011;6928;50.546;7.120;2023-06-14T01:35:38;1.00;;;1.00;;
13712;SDS011;6928;50.546;7.120;2023-06-14T01:38:05;0.70;;;0.70;;
13712;SDS011;6928;50.546;7.120;2023-06-14T01:40:35;1.58;;;1.13;;
13712;SDS011;6928;50.546;7.120;2023-06-14T01:43:02;2.17;;;1.25;;
13712;SDS011;6928;50.546;7.120;2023-06-14T01:45:30;1.85;;;0.93;;
13712;SDS011;6928;50.546;7.120;2023-06-14T01:47:57;1.98;;;1.13;;
13712;SDS011;6928;50.546;7.120;2023-06-14T01:50:27;1.08;;;1.05;;
13712;SDS011;6928;50.546;7.120;2023-06-14T01:52:54;0.70;;;0.70;;
13712;SDS011;6928;50.546;7.120;2023-06-14T01:55:21;0.80;;;0.80;;
13712;SDS011;6928;50.546;7.120;2023-06-14T01:57:51;2.13;;;0.70;;
13712;SDS011;6928;50.546;7.120;2023-06-14T02:00:18;0.77;;;0.77;;
13712;SDS011;6928;50.546;7.120;2023-06-14T02:02:44;0.98;;;0.98;;
13712;SDS011;6928;50.546;7.120;2023-06-14T02:05:11;1.15;;;0.88;;
13712;SDS011;6928;50.546;7.120;2023-06-14T02:07:38;1.15;;;1.05;;
13712;SDS011;6928;50.546;7.120;2023-06-14T02:10:05;1.08;;;1.05;;
13712;SDS011;6928;50.546;7.120;2023-06-14T02:12:32;0.73;;;0.73;;
13712;SDS011;6928;50.546;7.120;2023-06-14T02:15:00;0.82;;;0.77;;
13712;SDS011;6928;50.546;7.120;2023-06-14T02:17:26;0.70;;;0.70;;
13712;SDS011;6928;50.546;7.120;2023-06-14T02:19:53;1.35;;;1.20;;
13712;SDS011;6928;50.546;7.120;2023-06-14T02:22:20;0.68;;;0.68;;
13712;SDS011;6928;50.546;7.120;2023-06-14T02:24:47;0.98;;;0.90;;
13712;SDS011;6928;50.546;7.120;2023-06-14T02:27:14;1.23;;;1.00;;
13712;SDS011;6928;50.546;7.120;2023-06-14T02:29:40;1.67;;;0.90;;
13712;SDS011;6928;50.546;7.120;2023-06-14T02:32:08;1.08;;;1.02;;
13712;SDS011;6928;50.546;7.120;2023-06-14T02:34:35;1.13;;;0.90;;
13712;SDS011;6928;50.546;7.120;2023-06-14T02:37:05;0.68;;;0.68;;
13712;SDS011;6928;50.546;7.120;2023-06-14T02:39:32;0.88;;;0.88;;
13712;SDS011;6928;50.546;7.120;2023-06-14T02:41:58;1.27;;;1.23;;
13712;SDS011;6928;50.546;7.120;2023-06-14T02:44:25;3.78;;;1.63;;
13712;SDS011;6928;50.546;7.120;2023-06-14T02:46:52;0.80;;;0.80;;
13712;SDS011;6928;50.546;7.120;2023-06-14T02:49:21;0.50;;;0.50;;
13712;SDS011;6928;50.546;7.120;2023-06-14T02:51:48;0.65;;;0.65;;
13712;SDS011;6928;50.546;7.120;2023-06-14T02:54:15;3.45;;;1.23;;
13712;SDS011;6928;50.546;7.120;2023-06-14T02:56:42;1.13;;;1.02;;
13712;SDS011;6928;50.546;7.120;2023-06-14T02:59:08;2.38;;;1.23;;
13712;SDS011;6928;50.546;7.120;2023-06-14T03:01:35;1.25;;;1.23;;
13712;SDS011;6928;50.546;7.120;2023-06-14T03:04:05;0.95;;;0.95;;
13712;SDS011;6928;50.546;7.120;2023-06-14T03:06:34;1.38;;;1.00;;
13712;SDS011;6928;50.546;7.120;2023-06-14T03:09:01;1.30;;;1.02;;
13712;SDS011;6928;50.546;7.120;2023-06-14T03:11:29;1.25;;;1.15;;
13712;SDS011;6928;50.546;7.120;2023-06-14T03:13:56;1.20;;;1.00;;
13712;SDS011;6928;50.546;7.120;2023-06-14T03:16:23;0.85;;;0.85;;
13712;SDS011;6928;50.546;7.120;2023-06-14T03:18:50;1.23;;;1.13;;
13712;SDS011;6928;50.546;7.120;2023-06-14T03:21:18;0.95;;;0.95;;
13712;SDS011;6928;50.546;7.120;2023-06-14T03:23:46;0.88;;;0.88;;
13712;SDS011;6928;50.546;7.120;2023-06-14T03:26:13;1.10;;;1.02;;
13712;SDS011;6928;50.546;7.120;2023-06-14T03:28:43;0.80;;;0.80;;
13712;SDS011;6928;50.546;7.120;2023-06-14T03:31:10;0.70;;;0.70;;
13712;SDS011;6928;50.546;7.120;2023-06-14T03:33:36;0.90;;;0.90;;
13712;SDS011;6928;50.546;7.120;2023-06-14T03:36:03;0.50;;;0.50;;
13712;SDS011;6928;50.546;7.120;2023-06-14T03:38:30;0.70;;;0.70;;
13712;SDS011;6928;50.546;7.120;2023-06-14T03:40:58;2.53;;;1.50;;
13712;SDS011;6928;50.546;7.120;2023-06-14T03:43:25;0.82;;;0.82;;
13712;SDS011;6928;50.546;7.120;2023-06-14T03:45:51;0.45;;;0.45;;
13712;SDS011;6928;50.546;7.120;2023-06-14T03:48:18;1.20;;;1.17;;
13712;SDS011;6928;50.546;7.120;2023-06-14T03:50:44;1.08;;;1.08;;
13712;SDS011;6928;50.546;7.120;2023-06-14T03:53:12;1.55;;;1.45;;
13712;SDS011;6928;50.546;7.120;2023-06-14T03:55:39;2.47;;;0.70;;
13712;SDS011;6928;50.546;7.120;2023-06-14T03:58:07;1.33;;;1.23;;
13712;SDS011;6928;50.546;7.120;2023-06-14T04:00:34;0.95;;;0.95;;
13712;SDS011;6928;50.546;7.120;2023-06-14T04:03:00;0.77;;;0.77;;
13712;SDS011;6928;50.546;7.120;2023-06-14T04:05:28;0.90;;;0.90;;
13712;SDS011;6928;50.546;7.120;2023-06-14T04:07:54;0.75;;;0.75;;
13712;SDS011;6928;50.546;7.120;2023-06-14T04:10:22;1.00;;;1.00;;
13712;SDS011;6928;50.546;7.120;2023-06-14T04:12:49;0.47;;;0.47;;
13712;SDS011;6928;50.546;7.120;2023-06-14T04:15:18;1.20;;;1.10;;
13712;SDS011;6928;50.546;7.120;2023-06-14T04:17:44;0.80;;;0.80;;
13712;SDS011;6928;50.546;7.120;2023-06-14T04:20:11;0.70;;;0.70;;
13712;SDS011;6928;50.546;7.120;2023-06-14T04:22:37;1.95;;;1.42;;
13712;SDS011;6928;50.546;7.120;2023-06-14T04:25:06;0.80;;;0.80;;
13712;SDS011;6928;50.546;7.120;2023-06-14T04:27:33;1.20;;;1.10;;
13712;SDS011;6928;50.546;7.120;2023-06-14T04:30:01;1.45;;;1.25;;
13712;SDS011;6928;50.546;7.120;2023-06-14T04:32:29;0.98;;;0.98;;
13712;SDS011;6928;50.546;7.120;2023-06-14T04:34:58;1.60;;;1.35;;
13712;SDS011;6928;50.546;7.120;2023-06-14T04:37:27;1.25;;;1.15;;
13712;SDS011;6928;50.546;7.120;2023-06-14T04:39:54;1.25;;;1.15;;
13712;SDS011;6928;50.546;7.120;2023-06-14T04:42:21;2.22;;;1.20;;
13712;SDS011;6928;50.546;7.120;2023-06-14T04:44:50;1.48;;;0.75;;
13712;SDS011;6928;50.546;7.120;2023-06-14T04:47:17;1.40;;;1.30;;
13712;SDS011;6928;50.546;7.120;2023-06-14T04:49:45;0.90;;;0.90;;
13712;SDS011;6928;50.546;7.120;2023-06-14T04:52:11;2.40;;;1.35;;
13712;SDS011;6928;50.546;7.120;2023-06-14T04:54:38;1.50;;;1.40;;
13712;SDS011;6928;50.546;7.120;2023-06-14T04:57:07;1.33;;;1.08;;
13712;SDS011;6928;50.546;7.120;2023-06-14T04:59:34;0.80;;;0.80;;
13712;SDS011;6928;50.546;7.120;2023-06-14T05:02:01;1.35;;;1.25;;
13712;SDS011;6928;50.546;7.120;2023-06-14T05:04:28;0.75;;;0.75;;
13712;SDS011;6928;50.546;7.120;2023-06-14T05:06:56;1.13;;;1.10;;
13712;SDS011;6928;50.546;7.120;2023-06-14T05:09:23;1.40;;;1.30;;
13712;SDS011;6928;50.546;7.120;2023-06-14T05:11:49;3.92;;;1.27;;
13712;SDS011;6928;50.546;7.120;2023-06-14T05:14:16;1.05;;;0.98;;
13712;SDS011;6928;50.546;7.120;2023-06-14T05:16:43;1.55;;;1.15;;
13712;SDS011;6928;50.546;7.120;2023-06-14T05:19:11;0.70;;;0.70;;
13712;SDS011;6928;50.546;7.120;2023-06-14T05:21:38;1.48;;;1.10;;
13712;SDS011;6928;50.546;7.120;2023-06-14T05:24:06;1.27;;;1.13;;
13712;SDS011;6928;50.546;7.120;2023-06-14T05:26:34;1.50;;;1.40;;
13712;SDS011;6928;50.546;7.120;2023-06-14T05:29:01;2.65;;;1.23;;
13712;SDS011;6928;50.546;7.120;2023-06-14T05:31:28;1.10;;;0.98;;
13712;SDS011;6928;50.546;7.120;2023-06-14T05:33:56;0.80;;;0.80;;
13712;SDS011;6928;50.546;7.120;2023-06-14T05:36:22;0.77;;;0.77;;
13712;SDS011;6928;50.546;7.120;2023-06-14T05:38:50;1.35;;;1.25;;
13712;SDS011;6928;50.546;7.120;2023-06-14T05:41:23;3.88;;;0.82;;
13712;SDS011;6928;50.546;7.120;2023-06-14T05:43:50;1.08;;;1.02;;
13712;SDS011;6928;50.546;7.120;2023-06-14T05:46:17;0.85;;;0.80;;
13712;SDS011;6928;50.546;7.120;2023-06-14T05:48:47;0.95;;;0.95;;
13712;SDS011;6928;50.546;7.120;2023-06-14T05:51:13;0.93;;;0.93;;
13712;SDS011;6928;50.546;7.120;2023-06-14T05:53:43;0.60;;;0.60;;
13712;SDS011;6928;50.546;7.120;2023-06-14T05:56:10;2.88;;;1.50;;
13712;SDS011;6928;50.546;7.120;2023-06-14T05:58:38;1.05;;;1.00;;
13712;SDS011;6928;50.546;7.120;2023-06-14T06:01:04;1.60;;;1.15;;
13712;SDS011;6928;50.546;7.120;2023-06-14T06:03:31;1.38;;;1.27;;
13712;SDS011;6928;50.546;7.120;2023-06-14T06:05:58;0.68;;;0.68;;
13712;SDS011;6928;50.546;7.120;2023-06-14T06:08:25;1.58;;;1.35;;
13712;SDS011;6928;50.546;7.120;2023-06-14T06:10:52;2.58;;;1.35;;
13712;SDS011;6928;50.546;7.120;2023-06-14T06:13:18;1.13;;;1.10;;
13712;SDS011;6928;50.546;7.120;2023-06-14T06:15:47;1.27;;;1.27;;
13712;SDS011;6928;50.546;7.120;2023-06-14T06:18:13;0.77;;;0.77;;
13712;SDS011;6928;50.546;7.120;2023-06-14T06:20:40;1.10;;;1.00;;
13712;SDS011;6928;50.546;7.120;2023-06-14T06:23:07;1.40;;;1.30;;
13712;SDS011;6928;50.546;7.120;2023-06-14T06:25:34;0.70;;;0.70;;
13712;SDS011;6928;50.546;7.120;2023-06-14T06:28:02;1.17;;;1.00;;
13712;SDS011;6928;50.546;7.120;2023-06-14T06:30:28;2.08;;;1.65;;
13712;SDS011;6928;50.546;7.120;2023-06-14T06:32:57;0.90;;;0.90;;
13712;SDS011;6928;50.546;7.120;2023-06-14T06:35:24;1.35;;;1.08;;
13712;SDS011;6928;50.546;7.120;2023-06-14T06:37:50;1.45;;;1.25;;
13712;SDS011;6928;50.546;7.120;2023-06-14T06:40:17;1.63;;;1.08;;
13712;SDS011;6928;50.546;7.120;2023-06-14T06:42:44;1.52;;;1.42;;
13712;SDS011;6928;50.546;7.120;2023-06-14T06:45:11;1.33;;;1.23;;
13712;SDS011;6928;50.546;7.120;2023-06-14T06:47:38;0.90;;;0.85;;
13712;SDS011;6928;50.546;7.120;2023-06-14T06:50:06;1.02;;;0.80;;
13712;SDS011;6928;50.546;7.120;2023-06-14T06:52:34;0.50;;;0.50;;
13712;SDS011;6928;50.546;7.120;2023-06-14T06:55:00;0.50;;;0.50;;
13712;SDS011;6928;50.546;7.120;2023-06-14T06:57:28;0.75;;;0.75;;
13712;SDS011;6928;50.546;7.120;2023-06-14T06:59:55;2.40;;;0.85;;
13712;SDS011;6928;50.546;7.120;2023-06-14T07:02:21;0.95;;;0.95;;
13712;SDS011;6928;50.546;7.120;2023-06-14T07:04:48;1.10;;;1.00;;
13712;SDS011;6928;50.546;7.120;2023-06-14T07:07:16;1.02;;;0.82;;
13712;SDS011;6928;50.546;7.120;2023-06-14T07:09:43;0.52;;;0.52;;
13712;SDS011;6928;50.546;7.120;2023-06-14T07:12:11;0.70;;;0.63;;
13712;SDS011;6928;50.546;7.120;2023-06-14T07:14:37;2.13;;;1.20;;
13712;SDS011;6928;50.546;7.120;2023-06-14T07:17:04;1.05;;;0.80;;
13712;SDS011;6928;50.546;7.120;2023-06-14T07:19:31;1.15;;;1.02;;
13712;SDS011;6928;50.546;7.120;2023-06-14T07:21:58;1.40;;;0.98;;
13712;SDS011;6928;50.546;7.120;2023-06-14T07:24:26;0.90;;;0.90;;
13712;SDS011;6928;50.546;7.120;2023-06-14T07:26:53;0.88;;;0.88;;
13712;SDS011;6928;50.546;7.120;2023-06-14T07:29:20;0.70;;;0.70;;
13712;SDS011;6928;50.546;7.120;2023-06-14T07:31:47;0.80;;;0.80;;
13712;SDS011;6928;50.546;7.120;2023-06-14T07:34:13;1.95;;;0.65;;
13712;SDS011;6928;50.546;7.120;2023-06-14T07:36:40;0.98;;;0.88;;
13712;SDS011;6928;50.546;7.120;2023-06-14T07:39:10;0.73;;;0.73;;
13712;SDS011;6928;50.546;7.120;2023-06-14T07:41:38;0.80;;;0.70;;
13712;SDS011;6928;50.546;7.120;2023-06-14T07:44:05;1.15;;;1.10;;
13712;SDS011;6928;50.546;7.120;2023-06-14T07:46:31;0.60;;;0.55;;
13712;SDS011;6928;50.546;7.120;2023-06-14T07:48:59;0.80;;;0.80;;
13712;SDS011;6928;50.546;7.120;2023-06-14T07:51:26;0.80;;;0.80;;
13712;SDS011;6928;50.546;7.120;2023-06-14T07:53:52;0.77;;;0.77;;
13712;SDS011;6928;50.546;7.120;2023-06-14T07:56:19;1.33;;;0.73;;
13712;SDS011;6928;50.546;7.120;2023-06-14T07:58:47;0.75;;;0.75;;
13712;SDS011;6928;50.546;7.120;2023-06-14T08:01:14;1.15;;;0.88;;
13712;SDS011;6928;50.546;7.120;2023-06-14T08:03:42;0.95;;;0.88;;
13712;SDS011;6928;50.546;7.120;2023-06-14T08:06:09;0.90;;;0.90;;
13712;SDS011;6928;50.546;7.120;2023-06-14T08:08:35;1.77;;;0.90;;
13712;SDS011;6928;50.546;7.120;2023-06-14T08:11:02;1.33;;;1.23;;
13712;SDS011;6928;50.546;7.120;2023-06-14T08:13:28;1.20;;;1.10;;
13712;SDS011;6928;50.546;7.120;2023-06-14T08:15:56;1.55;;;0.82;;
13712;SDS011;6928;50.546;7.120;2023-06-14T08:18:23;0.95;;;0.95;;
13712;SDS011;6928;50.546;7.120;2023-06-14T08:20:50;0.75;;;0.75;;
13712;SDS011;6928;50.546;7.120;2023-06-14T08:23:17;0.82;;;0.82;;
13712;SDS011;6928;50.546;7.120;2023-06-14T08:25:46;1.35;;;1.00;;
13712;SDS011;6928;50.546;7.120;2023-06-14T08:28:12;0.93;;;0.82;;
13712;SDS011;6928;50.546;7.120;2023-06-14T08:30:39;1.15;;;1.05;;
13712;SDS011;6928;50.546;7.120;2023-06-14T08:33:07;0.73;;;0.73;;
13712;SDS011;6928;50.546;7.120;2023-06-14T08:35:33;2.15;;;1.10;;
13712;SDS011;6928;50.546;7.120;2023-06-14T08:38:02;1.00;;;1.00;;
13712;SDS011;6928;50.546;7.120;2023-06-14T08:40:29;0.80;;;0.80;;
13712;SDS011;6928;50.546;7.120;2023-06-14T08:42:57;0.55;;;0.55;;
13712;SDS011;6928;50.546;7.120;2023-06-14T08:45:24;1.00;;;0.90;;
13712;SDS011;6928;50.546;7.120;2023-06-14T08:47:51;1.23;;;0.98;;
13712;SDS011;6928;50.546;7.120;2023-06-14T08:50:24;0.70;;;0.70;;
13712;SDS011;6928;50.546;7.120;2023-06-14T08:52:55;0.98;;;0.60;;
13712;SDS011;6928;50.546;7.120;2023-06-14T08:55:27;0.57;;;0.57;;
13712;SDS011;6928;50.546;7.120;2023-06-14T08:57:55;0.55;;;0.55;;
13712;SDS011;6928;50.546;7.120;2023-06-14T09:00:23;6.70;;;0.98;;
13712;SDS011;6928;50.546;7.120;2023-06-14T09:02:51;0.63;;;0.63;;
13712;SDS011;6928;50.546;7.120;2023-06-14T09:05:24;0.52;;;0.52;;
13712;SDS011;6928;50.546;7.120;2023-06-14T09:07:52;0.50;;;0.50;;
13712;SDS011;6928;50.546;7.120;2023-06-14T09:10:20;0.30;;;0.30;;
13712;SDS011;6928;50.546;7.120;2023-06-14T09:12:47;2.55;;;0.73;;
13712;SDS011;6928;50.546;7.120;2023-06-14T09:15:14;0.40;;;0.40;;
13712;SDS011;6928;50.546;7.120;2023-06-14T09:17:40;0.35;;;0.35;;
13712;SDS011;6928;50.546;7.120;2023-06-14T09:20:08;2.35;;;0.47;;
13712;SDS011;6928;50.546;7.120;2023-06-14T09:22:37;0.40;;;0.40;;
13712;SDS011;6928;50.546;7.120;2023-06-14T09:25:04;0.50;;;0.50;;
13712;SDS011;6928;50.546;7.120;2023-06-14T09:27:32;0.40;;;0.40;;
13712;SDS011;6928;50.546;7.120;2023-06-14T09:29:58;0.32;;;0.32;;
13712;SDS011;6928;50.546;7.120;2023-06-14T09:32:25;0.63;;;0.40;;
13712;SDS011;6928;50.546;7.120;2023-06-14T09:34:51;0.50;;;0.50;;
13712;SDS011;6928;50.546;7.120;2023-06-14T09:37:28;0.82;;;0.45;;
13712;SDS011;6928;50.546;7.120;2023-06-14T09:39:57;0.40;;;0.40;;
13712;SDS011;6928;50.546;7.120;2023-06-14T09:42:24;0.30;;;0.30;;
13712;SDS011;6928;50.546;7.120;2023-06-14T09:44:52;4.40;;;0.40;;
13712;SDS011;6928;50.546;7.120;2023-06-14T09:47:20;0.32;;;0.32;;
13712;SDS011;6928;50.546;7.120;2023-06-14T09:49:48;0.40;;;0.40;;
13712;SDS011;6928;50.546;7.120;2023-06-14T09:52:20;0.20;;;0.20;;
13712;SDS011;6928;50.546;7.120;2023-06-14T09:54:48;0.43;;;0.30;;
13712;SDS011;6928;50.546;7.120;2023-06-14T09:57:16;0.50;;;0.50;;
13712;SDS011;6928;50.546;7.120;2023-06-14T09:59:47;0.60;;;0.60;;
13712;SDS011;6928;50.546;7.120;2023-06-14T10:02:18;0.52;;;0.52;;
13712;SDS011;6928;50.546;7.120;2023-06-14T10:04:50;0.40;;;0.40;;
13712;SDS011;6928;50.546;7.120;2023-06-14T10:07:25;0.80;;;0.80;;
13712;SDS011;6928;50.546;7.120;2023-06-14T10:09:57;0.60;;;0.60;;
13712;SDS011;6928;50.546;7.120;2023-06-14T10:12:26;0.40;;;0.40;;
13712;SDS011;6928;50.546;7.120;2023-06-14T10:14:53;0.90;;;0.30;;
13712;SDS011;6928;50.546;7.120;2023-06-14T10:17:26;5.88;;;0.80;;
13712;SDS011;6928;50.546;7.120;2023-06-14T10:20:02;0.52;;;0.50;;
13712;SDS011;6928;50.546;7.120;2023-06-14T10:22:42;0.57;;;0.57;;
13712;SDS011;6928;50.546;7.120;2023-06-14T10:25:13;1.00;;;0.50;;
13712;SDS011;6928;50.546;7.120;2023-06-14T10:27:53;0.40;;;0.40;;
13712;SDS011;6928;50.546;7.120;2023-06-14T10:30:28;0.30;;;0.30;;
13712;SDS011;6928;50.546;7.120;2023-06-14T10:35:41;0.50;;;0.50;;
13712;SDS011;6928;50.546;7.120;2023-06-14T10:38:08;0.32;;;0.32;;
13712;SDS011;6928;50.546;7.120;2023-06-14T10:40:36;0.47;;;0.45;;
13712;SDS011;6928;50.546;7.120;2023-06-14T10:48:40;0.50;;;0.50;;
13712;SDS011;6928;50.546;7.120;2023-06-14T10:51:13;0.60;;;0.60;;
13712;SDS011;6928;50.546;7.120;2023-06-14T10:53:45;0.50;;;0.50;;
13712;SDS011;6928;50.546;7.120;2023-06-14T10:56:22;0.50;;;0.50;;
13712;SDS011;6928;50.546;7.120;2023-06-14T10:58:52;0.43;;;0.40;;
13712;SDS011;6928;50.546;7.120;2023-06-14T11:01:23;1.33;;;0.60;;
13712;SDS011;6928;50.546;7.120;2023-06-14T11:04:00;0.88;;;0.63;;
13712;SDS011;6928;50.546;7.120;2023-06-14T11:06:42;0.50;;;0.50;;
13712;SDS011;6928;50.546;7.120;2023-06-14T11:09:17;0.68;;;0.55;;
13712;SDS011;6928;50.546;7.120;2023-06-14T11:11:55;2.63;;;0.80;;
13712;SDS011;6928;50.546;7.120;2023-06-14T11:14:24;1.92;;;0.47;;
13712;SDS011;6928;50.546;7.120;2023-06-14T11:16:50;0.57;;;0.50;;
13712;SDS011;6928;50.546;7.120;2023-06-14T11:19:17;0.50;;;0.50;;
13712;SDS011;6928;50.546;7.120;2023-06-14T11:21:46;0.50;;;0.50;;
13712;SDS011;6928;50.546;7.120;2023-06-14T11:24:13;2.17;;;0.57;;
13712;SDS011;6928;50.546;7.120;2023-06-14T11:26:40;0.30;;;0.30;;
13712;SDS011;6928;50.546;7.120;2023-06-14T11:29:07;0.95;;;0.73;;
13712;SDS011;6928;50.546;7.120;2023-06-14T11:31:35;2.38;;;0.55;;
13712;SDS011;6928;50.546;7.120;2023-06-14T11:34:01;0.50;;;0.40;;
13712;SDS011;6928;50.546;7.120;2023-06-14T11:36:29;0.30;;;0.30;;
13712;SDS011;6928;50.546;7.120;2023-06-14T11:38:59;1.45;;;0.60;;
13712;SDS011;6928;50.546;7.120;2023-06-14T11:41:31;0.50;;;0.40;;
13712;SDS011;6928;50.546;7.120;2023-06-14T11:43:59;0.95;;;0.40;;
13712;SDS011;6928;50.546;7.120;2023-06-14T11:46:26;0.50;;;0.50;;
13712;SDS011;6928;50.546;7.120;2023-06-14T11:48:54;0.50;;;0.50;;
13712;SDS011;6928;50.546;7.120;2023-06-14T11:51:21;0.40;;;0.40;;
13712;SDS011;6928;50.546;7.120;2023-06-14T11:53:48;0.40;;;0.40;;
13712;SDS011;6928;50.546;7.120;2023-06-14T11:56:14;0.38;;;0.38;;
13712;SDS011;6928;50.546;7.120;2023-06-14T11:58:42;0.55;;;0.55;;
13712;SDS011;6928;50.546;7.120;2023-06-14T12:01:09;0.90;;;0.38;;
13712;SDS011;6928;50.546;7.120;2023-06-14T12:03:35;0.50;;;0.50;;
13712;SDS011;6928;50.546;7.120;2023-06-14T12:06:05;0.28;;;0.28;;
13712;SDS011;6928;50.546;7.120;2023-06-14T12:08:33;0.60;;;0.40;;
13712;SDS011;6928;50.546;7.120;2023-06-14T12:11:04;0.40;;;0.40;;
13712;SDS011;6928;50.546;7.120;2023-06-14T12:13:31;0.28;;;0.28;;
13712;SDS011;6928;50.546;7.120;2023-06-14T12:15:57;0.30;;;0.30;;
13712;SDS011;6928;50.546;7.120;2023-06-14T12:18:31;0.38;;;0.30;;
13712;SDS011;6928;50.546;7.120;2023-06-14T12:20:59;0.38;;;0.38;;
13712;SDS011;6928;50.546;7.120;2023-06-14T12:23:39;3.35;;;0.47;;
13712;SDS011;6928;50.546;7.120;2023-06-14T12:26:09;0.32;;;0.32;;
13712;SDS011;6928;50.546;7.120;2023-06-14T12:28:35;0.40;;;0.40;;
13712;SDS011;6928;50.546;7.120;2023-06-14T12:31:02;0.40;;;0.40;;
13712;SDS011;6928;50.546;7.120;2023-06-14T12:33:29;4.13;;;0.50;;
13712;SDS011;6928;50.546;7.120;2023-06-14T12:35:56;0.50;;;0.50;;
13712;SDS011;6928;50.546;7.120;2023-06-14T12:38:23;0.38;;;0.38;;
13712;SDS011;6928;50.546;7.120;2023-06-14T12:40:51;0.30;;;0.30;;
13712;SDS011;6928;50.546;7.120;2023-06-14T12:43:18;0.65;;;0.65;;
13712;SDS011;6928;50.546;7.120;2023-06-14T12:45:44;0.75;;;0.47;;
13712;SDS011;6928;50.546;7.120;2023-06-14T12:48:11;2.90;;;0.60;;
13712;SDS011;6928;50.546;7.120;2023-06-14T12:50:37;0.63;;;0.63;;
13712;SDS011;6928;50.546;7.120;2023-06-14T12:53:04;0.30;;;0.30;;
13712;SDS011;6928;50.546;7.120;2023-06-14T12:55:30;0.45;;;0.45;;
13712;SDS011;6928;50.546;7.120;2023-06-14T12:57:59;0.43;;;0.43;;
13712;SDS011;6928;50.546;7.120;2023-06-14T13:00:26;0.68;;;0.55;;
13712;SDS011;6928;50.546;7.120;2023-06-14T13:02:52;0.40;;;0.40;;
13712;SDS011;6928;50.546;7.120;2023-06-14T13:05:19;2.15;;;0.50;;
13712;SDS011;6928;50.546;7.120;2023-06-14T13:07:45;0.40;;;0.40;;
13712;SDS011;6928;50.546;7.120;2023-06-14T13:10:12;0.40;;;0.40;;
13712;SDS011;6928;50.546;7.120;2023-06-14T13:12:38;0.40;;;0.40;;
13712;SDS011;6928;50.546;7.120;2023-06-14T13:15:07;0.40;;;0.40;;
13712;SDS011;6928;50.546;7.120;2023-06-14T13:17:34;0.40;;;0.40;;
13712;SDS011;6928;50.546;7.120;2023-06-14T13:20:03;0.60;;;0.40;;
13712;SDS011;6928;50.546;7.120;2023-06-14T13:22:30;0.40;;;0.40;;
13712;SDS011;6928;50.546;7.120;2023-06-14T13:24:57;0.40;;;0.40;;
13712;SDS011;6928;50.546;7.120;2023-06-14T13:27:23;0.50;;;0.50;;
13712;SDS011;6928;50.546;7.120;2023-06-14T13:29:50;0.30;;;0.30;;
13712;SDS011;6928;50.546;7.120;2023-06-14T13:32:18;0.38;;;0.38;;
13712;SDS011;6928;50.546;7.120;2023-06-14T13:34:44;0.40;;;0.40;;
13712;SDS011;6928;50.546;7.120;2023-06-14T13:37:11;0.90;;;0.57;;
13712;SDS011;6928;50.546;7.120;2023-06-14T13:39:38;0.22;;;0.22;;
13712;SDS011;6928;50.546;7.120;2023-06-14T13:42:05;0.52;;;0.52;;
13712;SDS011;6928;50.546;7.120;2023-06-14T13:44:32;0.30;;;0.30;;
13712;SDS011;6928;50.546;7.120;2023-06-14T13:46:59;0.50;;;0.50;;
13712;SDS011;6928;50.546;7.120;2023-06-14T13:49:27;0.57;;;0.57;;
13712;SDS011;6928;50.546;7.120;2023-06-14T13:51:54;0.50;;;0.50;;
13712;SDS011;6928;50.546;7.120;2023-06-14T13:54:20;0.82;;;0.50;;
13712;SDS011;6928;50.546;7.120;2023-06-14T13:56:47;0.50;;;0.50;;
13712;SDS011;6928;50.546;7.120;2023-06-14T13:59:14;0.50;;;0.50;;
13712;SDS011;6928;50.546;7.120;2023-06-14T14:01:41;0.47;;;0.47;;
13712;SDS011;6928;50.546;7.120;2023-06-14T14:04:08;0.60;;;0.60;;
13712;SDS011;6928;50.546;7.120;2023-06-14T14:06:36;0.73;;;0.73;;
13712;SDS011;6928;50.546;7.120;2023-06-14T14:09:02;0.50;;;0.50;;
13712;SDS011;6928;50.546;7.120;2023-06-14T14:11:29;0.45;;;0.45;;
13712;SDS011;6928;50.546;7.120;2023-06-14T14:13:58;0.50;;;0.50;;
13712;SDS011;6928;50.546;7.120;2023-06-14T14:16:25;0.50;;;0.50;;
13712;SDS011;6928;50.546;7.120;2023-06-14T14:18:51;0.73;;;0.70;;
13712;SDS011;6928;50.546;7.120;2023-06-14T14:21:18;0.73;;;0.70;;
13712;SDS011;6928;50.546;7.120;2023-06-14T14:23:46;0.50;;;0.50;;
13712;SDS011;6928;50.546;7.120;2023-06-14T14:26:14;0.50;;;0.50;;
13712;SDS011;6928;50.546;7.120;2023-06-14T14:28:41;0.93;;;0.65;;
13712;SDS011;6928;50.546;7.120;2023-06-14T14:31:07;0.47;;;0.47;;
13712;SDS011;6928;50.546;7.120;2023-06-14T14:33:34;2.10;;;0.90;;
13712;SDS011;6928;50.546;7.120;2023-06-14T14:36:01;4.85;;;0.68;;
13712;SDS011;6928;50.546;7.120;2023-06-14T14:38:29;0.38;;;0.38;;
13712;SDS011;6928;50.546;7.120;2023-06-14T14:40:57;1.13;;;0.70;;
13712;SDS011;6928;50.546;7.120;2023-06-14T14:43:24;0.55;;;0.55;;
13712;SDS011;6928;50.546;7.120;2023-06-14T14:45:50;0.70;;;0.63;;
13712;SDS011;6928;50.546;7.120;2023-06-14T14:48:17;0.70;;;0.70;;
13712;SDS011;6928;50.546;7.120;2023-06-14T14:50:44;0.50;;;0.50;;
13712;SDS011;6928;50.546;7.120;2023-06-14T14:53:10;0.55;;;0.55;;
13712;SDS011;6928;50.546;7.120;2023-06-14T14:55:37;0.60;;;0.60;;
13712;SDS011;6928;50.546;7.120;2023-06-14T14:58:06;0.75;;;0.50;;
13712;SDS011;6928;50.546;7.120;2023-06-14T15:00:33;0.95;;;0.70;;
13712;SDS011;6928;50.546;7.120;2023-06-14T15:02:59;0.85;;;0.63;;
13712;SDS011;6928;50.546;7.120;2023-06-14T15:05:26;1.05;;;0.85;;
13712;SDS011;6928;50.546;7.120;2023-06-14T15:07:53;0.60;;;0.60;;
13712;SDS011;6928;50.546;7.120;2023-06-14T15:10:19;0.40;;;0.40;;
13712;SDS011;6928;50.546;7.120;2023-06-14T15:12:46;1.48;;;0.52;;